createdAt,value
2024-03-06T00:00:39.775Z,2.70
2024-03-06T00:03:09.354Z,3.00
2024-03-06T00:05:38.980Z,3.35
2024-03-06T00:08:08.738Z,2.80
2024-03-06T00:10:38.572Z,2.77
2024-03-06T00:13:08.189Z,3.42
2024-03-06T00:15:37.775Z,2.35
2024-03-06T00:18:07.576Z,2.80
2024-03-06T00:20:38.210Z,2.55
2024-03-06T00:23:07.847Z,2.47
2024-03-06T00:25:37.587Z,2.60
2024-03-06T00:28:07.647Z,2.67
2024-03-06T00:30:37.177Z,2.05
2024-03-06T00:33:06.920Z,2.10
2024-03-06T00:35:36.468Z,1.85
2024-03-06T00:38:06.245Z,1.90
2024-03-06T00:40:35.949Z,1.57
2024-03-06T00:43:06.206Z,1.57
2024-03-06T00:45:35.883Z,1.37
2024-03-06T00:48:06.063Z,1.30
2024-03-06T00:50:36.587Z,1.50
2024-03-06T00:53:06.252Z,1.27
2024-03-06T00:55:35.916Z,1.30
2024-03-06T00:58:07.538Z,1.22
2024-03-06T01:00:37.204Z,1.10
2024-03-06T01:03:07.257Z,0.82
2024-03-06T01:05:36.851Z,0.75
2024-03-06T01:08:06.666Z,0.95
2024-03-06T01:10:36.913Z,0.50
2024-03-06T01:13:06.865Z,0.68
2024-03-06T01:15:36.404Z,0.80
2024-03-06T01:18:06.585Z,0.88
2024-03-06T01:20:36.135Z,0.60
2024-03-06T01:23:06.602Z,0.50
2024-03-06T01:25:36.586Z,0.60
2024-03-06T01:28:06.580Z,1.02
2024-03-06T01:30:36.130Z,0.85
2024-03-06T01:33:07.697Z,0.80
2024-03-06T01:35:37.573Z,0.70
2024-03-06T01:38:07.347Z,0.60
2024-03-06T01:40:37.037Z,0.53
2024-03-06T01:43:06.592Z,0.55
2024-03-06T01:45:36.218Z,0.93
2024-03-06T01:48:09.044Z,0.60
2024-03-06T01:53:07.527Z,0.40
2024-03-06T01:55:37.634Z,0.40
2024-03-06T01:58:07.307Z,0.60
2024-03-06T02:00:37.800Z,0.80
2024-03-06T02:03:07.734Z,0.80
2024-03-06T02:05:37.718Z,0.80
2024-03-06T02:08:09.103Z,0.70
2024-03-06T02:10:38.744Z,0.50
2024-03-06T02:13:08.464Z,1.02
2024-03-06T02:15:38.177Z,0.68
2024-03-06T02:18:10.089Z,0.80
2024-03-06T02:20:43.219Z,0.70
2024-03-06T02:23:12.937Z,1.00
2024-03-06T02:25:43.299Z,0.70
2024-03-06T02:28:12.864Z,1.00
2024-03-06T02:30:42.661Z,0.95
2024-03-06T02:33:12.419Z,1.00
2024-03-06T02:35:43.456Z,0.95
2024-03-06T02:38:14.132Z,1.10
2024-03-06T02:40:46.400Z,1.17
2024-03-06T02:43:18.103Z,1.00
2024-03-06T02:45:47.798Z,1.10
2024-03-06T02:48:17.391Z,0.72
2024-03-06T02:50:47.132Z,1.57
2024-03-06T02:53:16.853Z,1.00
2024-03-06T02:55:46.519Z,1.20
2024-03-06T02:58:17.840Z,1.30
2024-03-06T03:00:47.628Z,1.70
2024-03-06T03:03:17.300Z,1.25
2024-03-06T03:05:46.830Z,0.98
2024-03-06T03:08:17.488Z,1.30
2024-03-06T03:10:47.144Z,1.27
2024-03-06T03:13:16.774Z,0.95
2024-03-06T03:15:46.427Z,1.05
2024-03-06T03:18:16.089Z,1.27
2024-03-06T03:20:45.786Z,0.93
2024-03-06T03:25:45.981Z,0.98
2024-03-06T03:28:15.590Z,1.15
2024-03-06T03:30:48.413Z,1.00
2024-03-06T03:33:18.128Z,1.10
2024-03-06T03:35:47.699Z,1.05
2024-03-06T03:38:18.373Z,1.32
2024-03-06T03:40:48.039Z,1.40
2024-03-06T03:43:17.571Z,1.35
2024-03-06T03:45:47.240Z,1.15
2024-03-06T03:48:16.904Z,1.55
2024-03-06T03:50:46.943Z,0.90
2024-03-06T03:53:17.245Z,1.32
2024-03-06T03:55:46.897Z,1.25
2024-03-06T03:58:16.539Z,1.62
2024-03-06T04:00:46.136Z,1.15
2024-03-06T04:03:15.773Z,0.90
2024-03-06T04:05:45.306Z,1.00
2024-03-06T04:08:15.027Z,1.30
2024-03-06T04:10:47.133Z,1.07
2024-03-06T04:13:18.089Z,1.47
2024-03-06T04:15:48.451Z,1.40
2024-03-06T04:18:18.232Z,1.47
2024-03-06T04:20:48.034Z,1.25
2024-03-06T04:23:17.772Z,1.12
2024-03-06T04:25:47.623Z,1.00
2024-03-06T04:28:17.659Z,1.70
2024-03-06T04:30:47.223Z,1.50
2024-03-06T04:33:16.810Z,1.25
2024-03-06T04:35:46.587Z,1.62
2024-03-06T04:38:16.633Z,1.75
2024-03-06T04:40:46.396Z,1.30
2024-03-06T04:43:16.035Z,1.47
2024-03-06T04:45:45.634Z,1.50
2024-03-06T04:48:15.296Z,1.55
2024-03-06T04:50:46.033Z,1.77
2024-03-06T04:53:15.701Z,1.67
2024-03-06T04:55:45.415Z,1.72
2024-03-06T04:58:15.847Z,2.20
2024-03-06T05:00:45.391Z,2.27
2024-03-06T05:59:18.870Z,3.27
2024-03-06T06:01:48.621Z,3.15
2024-03-06T06:04:18.140Z,3.55
2024-03-06T06:06:47.702Z,3.75
2024-03-06T06:09:17.916Z,3.08
2024-03-06T06:11:48.805Z,3.37
2024-03-06T06:14:18.697Z,3.60
2024-03-06T06:16:48.307Z,3.42
2024-03-06T06:19:17.977Z,8.28
2024-03-06T06:21:48.994Z,12.93
2024-03-06T06:24:18.671Z,15.25
2024-03-06T06:26:48.758Z,8.75
2024-03-06T06:29:18.424Z,7.05
2024-03-06T06:31:48.145Z,5.40
2024-03-06T06:34:17.684Z,4.80
2024-03-06T06:36:50.242Z,5.85
2024-03-06T06:39:19.909Z,5.53
2024-03-06T06:41:49.543Z,6.05
2024-03-06T06:44:19.180Z,6.53
2024-03-06T06:46:48.827Z,6.42
2024-03-06T06:49:18.753Z,5.25
2024-03-06T06:51:49.443Z,5.37
2024-03-06T06:54:19.055Z,5.93
2024-03-06T06:56:48.605Z,4.83
2024-03-06T06:59:18.471Z,5.10
2024-03-06T07:01:49.225Z,4.95
2024-03-06T07:04:20.715Z,6.12
2024-03-06T07:06:50.401Z,8.08
2024-03-06T07:09:21.040Z,13.43
2024-03-06T07:11:52.279Z,14.93
2024-03-06T07:14:22.001Z,15.10
2024-03-06T07:16:51.762Z,8.53
2024-03-06T07:19:21.361Z,8.33
2024-03-06T07:21:50.925Z,7.85
2024-03-06T07:24:20.573Z,5.58
2024-03-06T07:26:50.222Z,7.67
2024-03-06T07:29:19.847Z,6.97
2024-03-06T07:31:49.724Z,6.15
2024-03-06T07:34:19.416Z,6.62
2024-03-06T07:36:49.502Z,6.12
2024-03-06T07:39:20.872Z,6.72
2024-03-06T07:41:50.648Z,5.87
2024-03-06T07:44:21.486Z,5.62
2024-03-06T07:46:51.238Z,5.45
2024-03-06T07:49:20.781Z,6.20
2024-03-06T07:51:53.180Z,5.10
2024-03-06T07:54:22.720Z,4.87
2024-03-06T07:56:52.548Z,6.72
2024-03-06T07:59:22.357Z,6.40
2024-03-06T08:01:52.021Z,5.45
2024-03-06T08:04:21.615Z,5.50
2024-03-06T08:06:51.279Z,5.65
2024-03-06T08:09:21.004Z,6.08
2024-03-06T08:11:50.820Z,7.05
2024-03-06T08:14:20.600Z,6.65
2024-03-06T08:16:50.554Z,6.78
2024-03-06T08:19:20.100Z,6.28
2024-03-06T08:21:49.705Z,6.72
2024-03-06T08:24:21.014Z,6.47
2024-03-06T08:26:50.543Z,6.12
2024-03-06T08:29:20.164Z,6.78
2024-03-06T08:31:49.731Z,6.90
2024-03-06T08:34:19.435Z,5.78
2024-03-06T08:36:49.138Z,6.80
2024-03-06T08:39:18.662Z,5.55
2024-03-06T08:41:48.269Z,4.75
2024-03-06T08:44:17.975Z,4.62
2024-03-06T08:46:47.740Z,5.17
2024-03-06T08:49:17.582Z,4.75
2024-03-06T08:51:47.177Z,5.70
2024-03-06T08:54:16.887Z,4.80
2024-03-06T08:56:46.553Z,5.22
2024-03-06T08:59:16.560Z,5.28
2024-03-06T09:01:46.413Z,5.77
2024-03-06T09:04:16.292Z,5.47
2024-03-06T09:06:47.845Z,6.53
2024-03-06T09:09:17.531Z,5.17
2024-03-06T09:11:47.081Z,6.55
2024-03-06T09:14:16.665Z,6.42
2024-03-06T09:16:46.309Z,4.40
2024-03-06T09:19:19.262Z,4.53
2024-03-06T09:21:47.131Z,5.12
2024-03-06T09:24:16.739Z,5.45
2024-03-06T09:26:47.097Z,5.15
2024-03-06T09:29:19.988Z,4.42
2024-03-06T09:31:49.885Z,4.30
2024-03-06T09:34:22.764Z,4.43
2024-03-06T09:36:52.602Z,4.65
2024-03-06T09:39:24.366Z,4.27
2024-03-06T09:41:57.076Z,3.80
2024-03-06T09:44:26.879Z,4.42
2024-03-06T09:46:58.963Z,4.30
2024-03-06T09:49:28.789Z,4.57
2024-03-06T09:52:00.261Z,4.85
2024-03-06T09:54:31.839Z,3.70
2024-03-06T09:57:01.616Z,5.33
2024-03-06T09:59:31.883Z,5.05
2024-03-06T10:02:07.391Z,5.55
2024-03-06T10:04:38.481Z,3.92
2024-03-06T10:07:09.255Z,4.15
2024-03-06T10:09:39.090Z,4.15
2024-03-06T10:12:08.908Z,4.08
2024-03-06T10:14:38.842Z,4.22
2024-03-06T10:17:08.561Z,3.72
2024-03-06T10:19:39.249Z,3.70
2024-03-06T10:22:09.830Z,3.80
2024-03-06T10:24:40.970Z,3.35
2024-03-06T10:27:12.110Z,3.12
2024-03-06T10:29:42.000Z,3.30
2024-03-06T10:32:12.469Z,4.12
2024-03-06T10:34:42.941Z,4.00
2024-03-06T10:37:12.485Z,3.10
2024-03-06T10:39:45.737Z,4.00
2024-03-06T10:42:16.575Z,3.75
2024-03-06T10:44:49.216Z,3.92
2024-03-06T10:47:20.614Z,4.80
2024-03-06T10:49:50.629Z,3.90
2024-03-06T10:52:21.435Z,3.70
2024-03-06T10:54:51.411Z,4.10
2024-03-06T10:57:22.191Z,4.20
2024-03-06T10:59:52.504Z,3.37
2024-03-06T11:02:24.852Z,3.92
2024-03-06T11:04:55.418Z,3.55
2024-03-06T11:07:25.117Z,4.00
2024-03-06T11:09:54.710Z,4.12
2024-03-06T11:12:41.442Z,4.08
2024-03-06T11:15:13.353Z,3.98
2024-03-06T11:17:43.116Z,3.77
2024-03-06T11:20:21.019Z,4.12
2024-03-06T11:23:12.402Z,4.28
2024-03-06T11:25:59.100Z,3.93
2024-03-06T11:28:31.331Z,3.50
2024-03-06T11:31:06.703Z,3.23
2024-03-06T11:33:44.103Z,3.77
2024-03-06T11:36:30.550Z,3.60
2024-03-06T11:39:02.679Z,3.40
2024-03-06T11:41:47.227Z,4.30
2024-03-06T11:44:25.462Z,4.58
2024-03-06T11:47:10.452Z,3.37
2024-03-06T11:49:41.866Z,3.45
2024-03-06T11:52:11.788Z,3.58
2024-03-06T11:54:41.370Z,3.52
2024-03-06T11:57:12.613Z,3.87
2024-03-06T11:59:42.312Z,3.22
2024-03-06T12:02:12.430Z,3.50
2024-03-06T12:04:43.302Z,3.67
2024-03-06T12:07:12.990Z,3.47
2024-03-06T12:09:44.025Z,3.50
2024-03-06T12:12:14.302Z,3.37
2024-03-06T12:14:44.249Z,3.87
2024-03-06T12:17:17.312Z,3.10
2024-03-06T12:19:47.310Z,3.77
2024-03-06T12:22:17.299Z,3.80
2024-03-06T12:24:47.405Z,3.65
2024-03-06T12:27:16.930Z,3.27
2024-03-06T12:29:47.971Z,3.55
2024-03-06T12:32:21.589Z,2.77
2024-03-06T12:35:01.942Z,3.20
2024-03-06T12:37:33.898Z,3.27
2024-03-06T12:40:09.282Z,3.17
2024-03-06T12:42:38.792Z,3.17
2024-03-06T12:45:09.925Z,2.85
2024-03-06T12:47:39.668Z,3.60
2024-03-06T12:50:09.845Z,2.90
2024-03-06T12:52:39.910Z,3.23
2024-03-06T12:55:09.732Z,3.30
2024-03-06T12:57:39.326Z,3.42
2024-03-06T13:00:11.486Z,3.45
2024-03-06T13:02:41.153Z,2.77
2024-03-06T13:05:10.795Z,3.02
2024-03-06T13:07:40.824Z,2.70
2024-03-06T13:10:11.599Z,2.57
2024-03-06T13:12:41.549Z,3.17
2024-03-06T13:15:11.347Z,3.20
2024-03-06T13:17:41.132Z,3.25
2024-03-06T13:20:14.855Z,3.72
2024-03-06T13:22:45.392Z,3.17
2024-03-06T13:25:14.954Z,2.50
2024-03-06T13:27:44.665Z,3.30
2024-03-06T13:30:14.746Z,2.72
2024-03-06T13:32:44.859Z,3.22
2024-03-06T13:35:16.257Z,2.60
2024-03-06T13:37:46.292Z,3.33
2024-03-06T13:40:16.241Z,3.25
2024-03-06T13:42:46.500Z,3.05
2024-03-06T13:45:16.306Z,3.02
2024-03-06T13:47:46.847Z,3.37
2024-03-06T13:50:18.442Z,2.92
2024-03-06T13:52:48.130Z,2.45
2024-03-06T13:55:19.254Z,2.85
2024-03-06T13:57:48.850Z,2.80
2024-03-06T14:00:19.801Z,2.75
2024-03-06T14:02:50.858Z,2.58
2024-03-06T14:05:22.180Z,2.67
2024-03-06T14:07:52.540Z,3.12
2024-03-06T14:10:22.906Z,3.12
2024-03-06T14:12:53.656Z,4.25
2024-03-06T14:15:24.917Z,2.77
2024-03-06T14:17:55.784Z,2.47
2024-03-06T14:20:25.863Z,2.22
2024-03-06T14:22:55.925Z,2.10
2024-03-06T14:25:25.665Z,3.15
2024-03-06T14:27:55.339Z,2.45
2024-03-06T14:30:25.028Z,2.45
2024-03-06T14:32:54.802Z,2.20
2024-03-06T14:35:24.802Z,2.02
2024-03-06T14:37:57.689Z,2.02
2024-03-06T14:40:28.127Z,2.83
2024-03-06T14:42:57.686Z,2.47
2024-03-06T14:45:27.252Z,2.20
2024-03-06T14:47:56.946Z,2.15
2024-03-06T14:50:26.658Z,2.30
2024-03-06T14:52:56.232Z,3.50
2024-03-06T14:55:26.328Z,2.55
2024-03-06T14:57:56.336Z,2.40
2024-03-06T15:00:25.916Z,2.20
2024-03-06T15:02:57.162Z,2.45
2024-03-06T15:05:26.899Z,2.50
2024-03-06T15:07:56.499Z,1.75
2024-03-06T15:10:26.215Z,2.40
2024-03-06T15:12:57.689Z,2.60
2024-03-06T15:15:27.701Z,2.25
2024-03-06T15:17:57.544Z,2.15
2024-03-06T15:20:28.773Z,1.90
2024-03-06T15:22:58.570Z,2.20
2024-03-06T15:25:29.068Z,2.47
2024-03-06T15:27:58.589Z,2.50
2024-03-06T15:30:29.801Z,1.87
2024-03-06T15:32:59.756Z,2.33
2024-03-06T15:35:29.536Z,2.37
2024-03-06T15:37:59.108Z,1.82
2024-03-06T15:40:29.067Z,2.75
2024-03-06T15:42:58.585Z,2.92
2024-03-06T15:45:28.246Z,2.22
2024-03-06T15:47:58.073Z,2.45
2024-03-06T15:50:27.782Z,1.95
2024-03-06T15:52:57.433Z,2.50
2024-03-06T15:55:27.033Z,1.85
2024-03-06T15:57:57.043Z,1.95
2024-03-06T16:00:26.635Z,2.40
2024-03-06T16:02:56.470Z,2.30
2024-03-06T16:05:27.538Z,1.85
2024-03-06T16:08:05.145Z,2.08
2024-03-06T16:10:34.974Z,2.23
2024-03-06T16:13:04.714Z,2.20
2024-03-06T16:15:34.234Z,3.30
2024-03-06T16:18:03.999Z,2.85
2024-03-06T16:20:33.725Z,2.65
2024-03-06T16:23:03.416Z,2.40
2024-03-06T16:25:33.454Z,2.50
2024-03-06T16:28:02.968Z,2.08
2024-03-06T16:30:34.159Z,2.52
2024-03-06T16:33:03.951Z,2.17
2024-03-06T16:35:33.620Z,2.25
2024-03-06T16:38:03.321Z,2.45
2024-03-06T16:40:32.921Z,2.10
2024-03-06T16:43:02.535Z,2.90
2024-03-06T16:45:32.170Z,2.47
2024-03-06T16:48:02.182Z,2.37
2024-03-06T16:50:32.205Z,2.62
2024-03-06T16:53:01.900Z,3.37
2024-03-06T16:55:31.808Z,2.83
2024-03-06T16:58:01.593Z,2.47
2024-03-06T17:00:31.101Z,2.80
2024-03-06T17:03:02.975Z,2.12
2024-03-06T17:05:32.664Z,2.23
2024-03-06T17:08:04.239Z,2.05
2024-03-06T17:10:34.038Z,2.42
2024-03-06T17:13:04.243Z,2.58
2024-03-06T17:15:33.771Z,2.37
2024-03-06T17:18:03.644Z,2.58
2024-03-06T17:20:33.644Z,2.95
2024-03-06T17:23:04.829Z,2.30
2024-03-06T17:25:35.745Z,2.52
2024-03-06T17:28:06.379Z,2.30
2024-03-06T17:30:36.453Z,2.67
2024-03-06T17:33:06.595Z,2.33
2024-03-06T17:35:36.258Z,2.25
2024-03-06T17:38:05.991Z,2.40
2024-03-06T17:40:35.745Z,2.20
2024-03-06T17:43:06.003Z,2.20
2024-03-06T17:45:36.403Z,2.52
2024-03-06T17:48:06.958Z,2.20
2024-03-06T17:50:38.169Z,2.20
2024-03-06T17:53:09.682Z,2.10
2024-03-06T17:55:43.689Z,2.72
2024-03-06T17:58:13.444Z,4.20
2024-03-06T18:00:43.182Z,2.90
2024-03-06T18:03:12.688Z,2.00
2024-03-06T18:05:42.327Z,2.50
2024-03-06T18:08:12.079Z,2.00
2024-03-06T18:10:41.794Z,2.37
2024-03-06T18:13:11.544Z,8.18
2024-03-06T18:15:41.094Z,4.70
2024-03-06T18:18:10.650Z,7.47
2024-03-06T18:20:40.363Z,14.33
2024-03-06T18:23:11.761Z,4.30
2024-03-06T18:25:41.655Z,3.02
2024-03-06T18:28:11.184Z,4.50
2024-03-06T18:30:40.720Z,4.70
2024-03-06T18:33:10.287Z,3.50
2024-03-06T18:35:40.034Z,3.20
2024-03-06T18:38:09.622Z,3.72
2024-03-06T18:40:39.295Z,3.85
2024-03-06T18:43:09.920Z,3.10
2024-03-06T18:45:39.582Z,3.02
2024-03-06T18:48:09.416Z,2.67
2024-03-06T18:50:39.504Z,3.12
2024-03-06T18:53:09.306Z,2.90
2024-03-06T18:55:38.911Z,2.67
2024-03-06T18:58:08.445Z,3.02
2024-03-06T19:00:38.162Z,3.42
2024-03-06T19:03:07.726Z,3.40
2024-03-06T19:05:37.448Z,3.02
2024-03-06T19:08:07.660Z,7.85
2024-03-06T19:10:37.404Z,4.55
2024-03-06T19:13:09.179Z,5.17
2024-03-06T19:15:38.743Z,3.60
2024-03-06T19:18:09.674Z,3.60
2024-03-06T19:20:39.873Z,4.87
2024-03-06T19:23:09.750Z,8.78
2024-03-06T19:25:39.514Z,9.10
2024-03-06T19:28:09.215Z,8.13
2024-03-06T19:30:38.797Z,6.58
2024-03-06T19:33:08.357Z,6.62
2024-03-06T19:35:38.145Z,5.65
2024-03-06T19:38:09.389Z,8.43
2024-03-06T19:40:38.998Z,6.95
2024-03-06T19:43:08.653Z,4.95
2024-03-06T19:45:38.243Z,4.37
2024-03-06T19:48:08.193Z,3.60
2024-03-06T19:50:38.875Z,8.10
2024-03-06T19:53:08.812Z,8.20
2024-03-06T19:55:38.831Z,8.23
2024-03-06T19:58:09.545Z,13.95
2024-03-06T20:00:39.218Z,14.63
2024-03-06T20:03:09.091Z,13.25
2024-03-06T20:05:38.706Z,9.88
2024-03-06T20:08:08.930Z,9.98
2024-03-06T20:10:39.274Z,9.63
2024-03-06T20:13:08.804Z,7.08
2024-03-06T20:15:39.002Z,5.92
2024-03-06T20:18:08.961Z,8.20
2024-03-06T20:20:38.898Z,9.08
2024-03-06T20:23:10.632Z,10.58
2024-03-06T20:25:42.843Z,11.53
2024-03-06T20:30:45.632Z,11.60
2024-03-06T20:33:15.298Z,8.93
2024-03-06T20:35:45.172Z,7.10
2024-03-06T20:38:18.137Z,9.03
2024-03-06T20:40:46.168Z,13.38
2024-03-06T20:43:16.193Z,9.48
2024-03-06T20:45:45.962Z,10.88
2024-03-06T20:48:15.809Z,9.00
2024-03-06T20:50:46.010Z,12.78
2024-03-06T20:53:15.704Z,14.65
2024-03-06T20:55:46.949Z,20.25
2024-03-06T20:58:17.981Z,16.07
2024-03-06T21:00:49.704Z,13.88
2024-03-06T21:03:19.426Z,13.83
2024-03-06T21:05:50.600Z,15.23
2024-03-06T21:08:20.356Z,15.20
2024-03-06T21:10:50.147Z,11.68
2024-03-06T21:13:19.741Z,9.48
2024-03-06T21:15:49.265Z,8.90
2024-03-06T21:18:18.826Z,6.47
2024-03-06T21:20:48.484Z,7.17
2024-03-06T21:23:18.236Z,7.12
2024-03-06T21:25:47.973Z,6.20
2024-03-06T21:28:17.563Z,4.83
2024-03-06T21:30:47.073Z,4.95
2024-03-06T21:33:17.627Z,5.10
2024-03-06T21:35:47.647Z,4.45
2024-03-06T21:38:17.523Z,4.60
2024-03-06T21:40:47.279Z,4.42
2024-03-06T21:43:16.889Z,4.95
2024-03-06T21:45:46.455Z,4.65
2024-03-06T21:48:16.225Z,4.40
2024-03-06T21:50:46.065Z,4.62
2024-03-06T21:53:15.631Z,4.85
2024-03-06T21:55:45.600Z,5.05
2024-03-06T21:58:16.471Z,4.95
2024-03-06T22:00:46.440Z,6.70
2024-03-06T22:03:16.049Z,6.55
2024-03-06T22:05:45.926Z,6.12
2024-03-06T22:08:15.755Z,7.78
2024-03-06T22:10:46.383Z,7.35
2024-03-06T22:13:16.338Z,7.28
2024-03-06T22:15:45.900Z,7.65
2024-03-06T22:18:15.525Z,8.20
2024-03-06T22:20:45.364Z,9.10
2024-03-06T22:23:15.134Z,10.68
2024-03-06T22:25:44.710Z,8.95
2024-03-06T22:28:14.511Z,10.25
2024-03-06T22:30:46.532Z,10.75
2024-03-06T22:33:16.630Z,11.53
2024-03-06T22:35:46.465Z,10.38
2024-03-06T22:38:16.239Z,10.85
2024-03-06T22:40:46.074Z,10.48
2024-03-06T22:43:15.744Z,10.68
2024-03-06T22:45:45.263Z,10.32
2024-03-06T22:48:15.160Z,10.23
2024-03-06T22:50:45.058Z,9.68
2024-03-06T22:53:14.883Z,9.28
2024-03-06T22:55:44.618Z,9.95
2024-03-06T22:58:14.189Z,9.75
2024-03-06T23:00:45.242Z,9.75
2024-03-06T23:03:14.946Z,9.30
2024-03-06T23:05:47.880Z,10.15
2024-03-06T23:08:17.888Z,10.35
2024-03-06T23:10:47.528Z,11.93
2024-03-06T23:13:17.286Z,12.18
2024-03-06T23:15:47.431Z,12.18
2024-03-06T23:18:17.229Z,12.90
2024-03-06T23:20:46.943Z,11.88
2024-03-06T23:23:16.662Z,11.15
2024-03-06T23:25:46.368Z,11.60
2024-03-06T23:28:15.915Z,10.82
2024-03-06T23:30:45.855Z,11.05
2024-03-06T23:33:16.228Z,10.93
2024-03-06T23:35:45.932Z,10.82
2024-03-06T23:38:15.635Z,10.95
2024-03-06T23:40:45.181Z,10.38
2024-03-06T23:43:15.246Z,10.45
2024-03-06T23:45:45.552Z,10.72
2024-03-06T23:48:15.201Z,10.85
2024-03-06T23:50:45.197Z,10.55
2024-03-06T23:53:16.094Z,9.70
2024-03-06T23:55:45.912Z,9.58
2024-03-06T23:58:18.628Z,9.63
